createdAt,value
2018-09-05T00:01:34.943Z,94.86
2018-09-05T00:04:03.410Z,94.44
2018-09-05T00:06:31.800Z,95.25
2018-09-05T00:09:00.191Z,94.81
2018-09-05T00:11:28.623Z,94.56
2018-09-05T00:13:57.072Z,94.48
2018-09-05T00:16:25.497Z,94.73
2018-09-05T00:18:53.925Z,94.95
2018-09-05T00:21:22.327Z,95.17
2018-09-05T00:23:50.727Z,94.87
2018-09-05T00:26:19.556Z,95.20
2018-09-05T00:28:47.983Z,95.24
2018-09-05T00:31:16.519Z,95.00
2018-09-05T00:33:44.982Z,94.94
2018-09-05T00:36:13.457Z,94.88
2018-09-05T00:38:41.872Z,95.11
2018-09-05T00:41:11.251Z,95.22
2018-09-05T00:43:40.565Z,94.59
2018-09-05T00:46:09.005Z,94.82
2018-09-05T00:48:37.383Z,94.57
2018-09-05T00:51:06.623Z,94.98
2018-09-05T00:53:35.149Z,94.65
2018-09-05T00:56:03.593Z,95.00
2018-09-05T00:58:32.740Z,95.23
2018-09-05T01:01:01.140Z,95.45
2018-09-05T01:03:29.571Z,94.59
2018-09-05T01:05:57.993Z,94.50
2018-09-05T01:08:26.409Z,95.17
2018-09-05T01:10:54.893Z,95.35
2018-09-05T01:13:24.217Z,95.55
2018-09-05T01:15:52.672Z,95.21
2018-09-05T01:18:21.107Z,95.60
2018-09-05T01:20:50.158Z,95.52
2018-09-05T01:23:18.613Z,95.32
2018-09-05T01:25:47.049Z,95.66
2018-09-05T01:28:15.473Z,95.48
2018-09-05T01:30:43.883Z,95.52
2018-09-05T01:33:12.287Z,95.56
2018-09-05T01:35:40.719Z,95.77
2018-09-05T01:38:09.188Z,95.55
2018-09-05T01:40:37.601Z,95.82
2018-09-05T01:43:06.021Z,95.50
2018-09-05T01:45:34.466Z,94.96
2018-09-05T01:48:02.860Z,95.01
2018-09-05T01:50:36.641Z,94.99
2018-09-05T01:53:05.083Z,94.99
2018-09-05T01:55:33.516Z,95.10
2018-09-05T01:58:01.930Z,95.09
2018-09-05T02:00:33.255Z,95.72
2018-09-05T02:03:02.023Z,95.08
2018-09-05T02:05:30.533Z,95.74
2018-09-05T02:07:59.627Z,95.54
2018-09-05T02:10:28.228Z,95.21
2018-09-05T02:12:56.628Z,94.84
2018-09-05T02:15:25.021Z,94.86
2018-09-05T02:17:53.568Z,94.67
2018-09-05T02:20:22.148Z,94.81
2018-09-05T02:22:51.548Z,95.47
2018-09-05T02:25:19.981Z,95.05
2018-09-05T02:27:48.449Z,95.23
2018-09-05T02:30:16.853Z,95.70
2018-09-05T02:32:46.011Z,95.36
2018-09-05T02:35:14.413Z,95.83
2018-09-05T02:37:44.375Z,95.51
2018-09-05T02:40:12.971Z,95.09
2018-09-05T02:42:41.352Z,95.53
2018-09-05T02:45:09.852Z,95.37
2018-09-05T02:47:38.255Z,95.14
2018-09-05T02:50:06.745Z,95.68
2018-09-05T02:52:35.353Z,95.18
2018-09-05T02:55:03.837Z,95.54
2018-09-05T02:57:32.262Z,95.58
2018-09-05T03:00:00.681Z,95.09
2018-09-05T03:02:29.155Z,95.70
2018-09-05T03:04:57.565Z,95.21
2018-09-05T03:07:26.001Z,95.29
2018-09-05T03:09:54.458Z,95.58
2018-09-05T03:12:23.899Z,95.36
2018-09-05T03:14:53.111Z,95.17
2018-09-05T03:17:21.675Z,95.82
2018-09-05T03:19:50.166Z,95.63
2018-09-05T03:22:18.519Z,95.91
2018-09-05T03:24:46.958Z,95.43
2018-09-05T03:27:15.364Z,95.59
2018-09-05T03:29:43.791Z,96.09
2018-09-05T03:32:13.224Z,95.40
2018-09-05T03:34:41.640Z,95.84
2018-09-05T03:37:10.240Z,95.70
2018-09-05T03:39:38.660Z,95.34
2018-09-05T03:42:07.151Z,95.12
2018-09-05T03:44:35.548Z,95.13
2018-09-05T03:47:03.977Z,95.30
2018-09-05T03:49:32.367Z,94.99
2018-09-05T03:52:00.769Z,95.52
2018-09-05T03:54:29.184Z,95.26
2018-09-05T03:56:57.605Z,95.30
2018-09-05T03:59:26.046Z,95.35
2018-09-05T04:01:54.453Z,95.75
2018-09-05T04:04:22.839Z,96.03
2018-09-05T04:06:51.269Z,95.57
2018-09-05T04:09:19.709Z,95.51
2018-09-05T04:11:48.186Z,96.26
2018-09-05T04:14:16.649Z,95.69
2018-09-05T04:16:45.059Z,96.34
2018-09-05T04:19:13.476Z,96.21
2018-09-05T04:21:41.859Z,96.30
2018-09-05T04:24:10.538Z,96.48
2018-09-05T04:26:38.914Z,96.19
2018-09-05T04:29:07.321Z,95.67
2018-09-05T04:31:36.372Z,95.47
2018-09-05T04:34:04.833Z,95.56
2018-09-05T04:36:33.236Z,95.59
2018-09-05T04:39:01.660Z,96.08
2018-09-05T04:41:30.075Z,96.26
2018-09-05T04:43:58.493Z,96.08
2018-09-05T04:46:27.522Z,95.89
2018-09-05T04:48:56.006Z,96.41
2018-09-05T04:51:24.392Z,95.73
2018-09-05T04:53:52.820Z,95.86
2018-09-05T04:56:21.224Z,96.21
2018-09-05T04:58:49.647Z,96.13
2018-09-05T05:01:18.373Z,95.70
2018-09-05T05:03:46.731Z,95.71
2018-09-05T05:06:15.133Z,96.31
2018-09-05T05:08:44.547Z,96.55
2018-09-05T05:11:12.956Z,95.85
2018-09-05T05:13:41.342Z,95.90
2018-09-05T05:16:09.840Z,95.96
2018-09-05T05:18:38.241Z,96.68
2018-09-05T05:21:06.645Z,96.48
2018-09-05T05:23:35.037Z,96.04
2018-09-05T05:26:03.445Z,96.69
2018-09-05T05:28:31.844Z,96.56
2018-09-05T05:31:00.321Z,96.75
2018-09-05T05:33:28.724Z,96.24
2018-09-05T05:35:57.742Z,95.97
2018-09-05T05:38:26.264Z,96.55
2018-09-05T05:40:54.669Z,96.55
2018-09-05T05:43:23.113Z,96.25
2018-09-05T05:45:51.548Z,96.68
2018-09-05T05:48:19.920Z,96.90
2018-09-05T05:50:49.435Z,96.94
2018-09-05T05:53:17.862Z,96.63
2018-09-05T05:55:46.273Z,96.45
2018-09-05T05:58:14.855Z,96.17
2018-09-05T06:00:43.261Z,96.60
2018-09-05T06:03:11.651Z,97.02
2018-09-05T06:05:40.081Z,96.32
2018-09-05T06:08:08.492Z,96.22
2018-09-05T06:10:36.934Z,96.72
2018-09-05T06:13:05.743Z,96.87
2018-09-05T06:15:34.240Z,96.24
2018-09-05T06:18:02.683Z,96.22
2018-09-05T06:20:30.971Z,96.97
2018-09-05T06:22:59.384Z,96.72
2018-09-05T06:25:27.796Z,96.22
2018-09-05T06:27:56.262Z,96.99
2018-09-05T06:30:25.092Z,96.81
2018-09-05T06:32:53.412Z,96.82
2018-09-05T06:35:21.821Z,96.91
2018-09-05T06:37:50.201Z,96.92
2018-09-05T06:40:18.629Z,96.83
2018-09-05T06:42:47.096Z,97.02
2018-09-05T06:45:15.536Z,96.35
2018-09-05T06:47:43.904Z,96.58
2018-09-05T06:50:12.285Z,96.29
2018-09-05T06:52:40.692Z,96.54
2018-09-05T06:55:09.332Z,96.98
2018-09-05T06:57:37.797Z,96.77
2018-09-05T07:00:06.888Z,97.21
2018-09-05T07:02:36.237Z,96.60
2018-09-05T07:05:04.771Z,96.43
2018-09-05T07:07:33.246Z,97.16
2018-09-05T07:10:01.745Z,97.46
2018-09-05T07:12:30.123Z,97.21
2018-09-05T07:14:58.600Z,97.01
2018-09-05T07:17:27.042Z,97.21
2018-09-05T07:19:55.480Z,96.76
2018-09-05T07:22:23.885Z,97.18
2018-09-05T07:24:52.386Z,97.31
2018-09-05T07:27:20.753Z,97.04
2018-09-05T07:35:42.674Z,96.60
2018-09-05T07:38:10.989Z,97.43
2018-09-05T07:40:39.498Z,96.60
2018-09-05T07:43:07.940Z,97.04
2018-09-05T07:45:36.353Z,97.17
2018-09-05T07:48:05.202Z,96.49
2018-09-05T07:50:34.036Z,96.73
2018-09-05T07:53:02.477Z,97.31
2018-09-05T07:55:30.941Z,96.85
2018-09-05T07:57:59.324Z,97.41
2018-09-05T08:00:27.780Z,96.60
2018-09-05T08:02:56.164Z,97.11
2018-09-05T08:05:24.540Z,97.14
2018-09-05T08:07:52.903Z,96.63
2018-09-05T08:10:21.370Z,96.51
2018-09-05T08:12:49.757Z,96.81
2018-09-05T08:15:18.172Z,96.56
2018-09-05T08:17:46.593Z,95.76
2018-09-05T08:20:15.024Z,95.83
2018-09-05T08:22:43.493Z,94.78
2018-09-05T08:25:11.904Z,94.35
2018-09-05T08:27:40.327Z,94.14
2018-09-05T08:30:08.850Z,94.16
2018-09-05T08:32:37.197Z,93.59
2018-09-05T08:35:05.926Z,94.07
2018-09-05T08:37:34.345Z,94.73
2018-09-05T08:40:02.605Z,94.19
2018-09-05T08:42:34.087Z,95.54
2018-09-05T08:45:03.316Z,95.37
2018-09-05T08:47:32.078Z,94.34
2018-09-05T08:50:01.451Z,94.88
2018-09-05T08:52:30.360Z,95.27
2018-09-05T08:54:58.956Z,94.03
2018-09-05T08:57:27.361Z,93.95
2018-09-05T08:59:55.805Z,93.71
2018-09-05T09:02:24.227Z,93.97
2018-09-05T09:04:52.622Z,94.00
2018-09-05T09:07:21.053Z,93.80
2018-09-05T09:09:49.422Z,94.06
2018-09-05T09:12:18.168Z,93.40
2018-09-05T09:14:46.551Z,93.80
2018-09-05T09:17:14.927Z,93.47
2018-09-05T09:19:43.308Z,93.33
2018-09-05T09:22:11.713Z,93.62
2018-09-05T09:24:40.149Z,93.41
2018-09-05T09:27:08.645Z,92.70
2018-09-05T09:29:37.096Z,92.37
2018-09-05T09:32:05.948Z,92.70
2018-09-05T09:34:34.533Z,92.72
2018-09-05T09:37:02.947Z,92.22
2018-09-05T09:39:31.367Z,93.02
2018-09-05T09:41:59.789Z,92.76
2018-09-05T09:44:28.192Z,92.27
2018-09-05T09:46:56.634Z,92.91
2018-09-05T09:49:25.039Z,92.64
2018-09-05T09:51:57.581Z,92.59
2018-09-05T09:54:25.956Z,92.44
2018-09-05T09:56:54.347Z,92.70
2018-09-05T09:59:22.799Z,91.60
2018-09-05T10:01:56.343Z,89.36
2018-09-05T10:04:29.987Z,89.97
2018-09-05T10:08:04.126Z,91.02
2018-09-05T10:10:37.761Z,90.73
2018-09-05T10:13:11.448Z,86.62
2018-09-05T10:15:45.180Z,86.85
2018-09-05T10:18:18.853Z,86.13
2018-09-05T10:20:47.259Z,84.67
2018-09-05T10:23:15.628Z,86.36
2018-09-05T10:25:44.044Z,84.96
2018-09-05T10:28:12.428Z,83.17
2018-09-05T10:30:40.837Z,81.50
2018-09-05T10:33:09.295Z,81.14
2018-09-05T10:35:37.722Z,82.79
2018-09-05T10:40:33.545Z,82.08
2018-09-05T10:43:01.979Z,82.17
2018-09-05T10:45:30.389Z,82.38
2018-09-05T10:47:58.819Z,81.91
2018-09-05T10:50:27.212Z,82.07
2018-09-05T10:52:55.623Z,81.02
2018-09-05T10:55:24.005Z,82.08
2018-09-05T10:57:52.392Z,82.68
2018-09-05T11:00:20.897Z,84.66
2018-09-05T11:02:49.300Z,82.68
2018-09-05T11:05:17.718Z,82.05
2018-09-05T11:07:46.373Z,81.76
2018-09-05T11:10:14.868Z,79.71
2018-09-05T11:12:43.289Z,81.54
2018-09-05T11:15:11.724Z,78.29
2018-09-05T11:17:40.127Z,77.74
2018-09-05T11:20:10.071Z,77.69
2018-09-05T11:22:38.632Z,79.12
2018-09-05T11:25:07.053Z,81.53
2018-09-05T11:27:35.440Z,82.58
2018-09-05T11:30:04.085Z,81.77
2018-09-05T11:32:32.492Z,76.07
2018-09-05T11:35:00.899Z,76.66
2018-09-05T11:37:29.383Z,75.81
2018-09-05T11:39:57.750Z,76.19
2018-09-05T11:42:26.176Z,76.32
2018-09-05T11:44:54.595Z,72.47
2018-09-05T11:47:23.022Z,73.81
2018-09-05T11:49:51.388Z,71.34
2018-09-05T11:52:19.881Z,73.63
2018-09-05T11:54:48.297Z,73.92
2018-09-05T11:57:16.694Z,73.59
2018-09-05T11:59:45.076Z,74.46
2018-09-05T12:02:14.256Z,74.89
2018-09-05T12:04:42.611Z,74.26
2018-09-05T12:07:12.404Z,73.22
2018-09-05T12:09:40.808Z,73.52
2018-09-05T12:12:09.696Z,72.62
2018-09-05T12:14:38.095Z,71.46
2018-09-05T12:17:06.643Z,71.90
2018-09-05T12:19:35.071Z,73.18
2018-09-05T12:22:04.197Z,71.76
2018-09-05T12:24:32.589Z,71.92
2018-09-05T12:27:01.007Z,70.81
2018-09-05T12:29:31.280Z,70.47
2018-09-05T12:31:59.820Z,69.04
2018-09-05T12:34:28.269Z,70.52
2018-09-05T12:36:56.652Z,70.88
2018-09-05T12:39:25.050Z,72.26
2018-09-05T12:41:53.487Z,71.52
2018-09-05T12:44:21.892Z,71.15
2018-09-05T12:46:50.351Z,68.87
2018-09-05T12:49:18.909Z,69.27
2018-09-05T12:51:47.356Z,67.99
2018-09-05T12:54:15.840Z,68.99
2018-09-05T12:56:44.232Z,70.80
2018-09-05T12:59:12.746Z,68.36
2018-09-05T13:01:41.121Z,65.94
2018-09-05T13:04:09.707Z,66.55
2018-09-05T13:06:38.246Z,68.08
2018-09-05T13:09:11.188Z,70.74
2018-09-05T13:11:39.636Z,69.11
2018-09-05T13:14:08.076Z,66.89
2018-09-05T13:16:36.667Z,68.47
2018-09-05T13:19:05.137Z,66.91
2018-09-05T13:21:33.522Z,70.11
2018-09-05T13:24:02.004Z,68.85
2018-09-05T13:26:30.453Z,69.47
2018-09-05T13:28:59.045Z,67.58
2018-09-05T13:31:27.523Z,69.52
2018-09-05T13:33:55.907Z,68.14
2018-09-05T13:36:24.381Z,67.35
2018-09-05T13:38:52.784Z,64.07
2018-09-05T13:41:21.249Z,63.40
2018-09-05T13:43:49.725Z,64.47
2018-09-05T13:46:18.889Z,66.63
2018-09-05T13:48:47.411Z,67.83
2018-09-05T13:51:15.910Z,63.72
2018-09-05T13:53:44.367Z,62.31
2018-09-05T13:56:12.832Z,62.90
2018-09-05T13:58:41.255Z,61.87
2018-09-05T14:01:09.791Z,62.63
2018-09-05T14:03:38.437Z,66.12
2018-09-05T14:06:06.920Z,64.79
2018-09-05T14:08:35.340Z,65.96
2018-09-05T14:11:03.865Z,65.49
2018-09-05T14:13:32.344Z,63.08
2018-09-05T14:16:00.944Z,64.96
2018-09-05T14:18:29.373Z,65.52
2018-09-05T14:20:57.795Z,64.86
2018-09-05T14:23:26.330Z,66.43
2018-09-05T14:25:54.775Z,68.34
2018-09-05T14:28:23.849Z,69.24
2018-09-05T14:30:52.237Z,64.76
2018-09-05T14:33:20.751Z,62.59
2018-09-05T14:35:49.151Z,63.29
2018-09-05T14:38:17.527Z,66.14
2018-09-05T14:40:45.973Z,65.65
2018-09-05T14:43:15.423Z,69.59
2018-09-05T14:45:43.882Z,70.15
2018-09-05T14:48:12.331Z,71.20
2018-09-05T14:50:40.921Z,68.61
2018-09-05T14:53:09.337Z,67.83
2018-09-05T14:55:37.768Z,69.36
2018-09-05T14:58:06.569Z,63.31
2018-09-05T15:00:35.522Z,64.37
2018-09-05T15:03:03.936Z,65.74
2018-09-05T15:05:32.368Z,64.66
2018-09-05T15:08:00.786Z,67.65
2018-09-05T15:10:29.280Z,68.30
2018-09-05T15:12:57.745Z,66.57
2018-09-05T15:15:26.149Z,61.54
2018-09-05T15:17:56.032Z,65.98
2018-09-05T15:20:24.557Z,66.37
2018-09-05T15:22:53.112Z,67.95
2018-09-05T15:25:22.278Z,64.38
2018-09-05T15:27:50.714Z,64.55
2018-09-05T15:30:19.689Z,65.22
2018-09-05T15:32:48.068Z,66.39
2018-09-05T15:35:16.498Z,68.94
2018-09-05T15:37:44.929Z,68.61
2018-09-05T15:40:13.347Z,64.99
2018-09-05T15:42:41.797Z,66.34
2018-09-05T15:45:10.897Z,65.36
2018-09-05T15:47:39.487Z,67.05
2018-09-05T15:50:07.947Z,64.36
2018-09-05T15:52:36.336Z,65.81
2018-09-05T15:55:04.855Z,67.59
2018-09-05T15:57:33.401Z,66.86
2018-09-05T16:00:01.808Z,69.04
2018-09-05T16:02:30.276Z,68.44
2018-09-05T16:04:58.724Z,71.34
2018-09-05T16:07:27.144Z,70.77
2018-09-05T16:09:55.552Z,72.63
2018-09-05T16:12:23.971Z,72.77
2018-09-05T16:14:52.340Z,71.00
2018-09-05T16:17:20.741Z,71.52
2018-09-05T16:19:49.426Z,72.45
2018-09-05T16:22:17.797Z,73.76
2018-09-05T16:24:46.259Z,74.38
2018-09-05T16:27:14.720Z,74.99
2018-09-05T16:29:43.203Z,75.47
2018-09-05T16:32:11.710Z,74.09
2018-09-05T16:34:40.236Z,73.36
2018-09-05T16:37:08.676Z,74.41
2018-09-05T16:39:37.147Z,75.44
2018-09-05T16:42:05.633Z,75.59
2018-09-05T16:44:34.028Z,74.51
2018-09-05T16:47:02.591Z,76.30
2018-09-05T16:49:31.072Z,76.94
2018-09-05T16:51:59.564Z,76.97
2018-09-05T16:54:28.040Z,75.31
2018-09-05T16:56:56.601Z,76.96
2018-09-05T16:59:25.020Z,75.34
2018-09-05T17:01:53.425Z,75.60
2018-09-05T17:04:22.046Z,74.40
2018-09-05T17:06:50.564Z,74.39
2018-09-05T17:09:19.012Z,75.87
2018-09-05T17:11:47.444Z,77.62
2018-09-05T17:14:15.877Z,79.29
2018-09-05T17:16:44.336Z,78.90
2018-09-05T17:19:12.779Z,79.91
2018-09-05T17:21:41.187Z,79.55
2018-09-05T17:24:09.560Z,79.23
2018-09-05T17:26:38.688Z,77.35
2018-09-05T17:29:07.796Z,77.85
2018-09-05T17:31:36.255Z,78.44
2018-09-05T17:34:05.495Z,78.85
2018-09-05T17:36:33.938Z,78.25
2018-09-05T17:39:02.366Z,78.00
2018-09-05T17:41:30.818Z,79.15
2018-09-05T17:43:59.273Z,79.55
2018-09-05T17:46:27.707Z,79.13
2018-09-05T17:48:56.293Z,78.95
2018-09-05T17:51:24.816Z,80.89
2018-09-05T17:53:53.230Z,78.68
2018-09-05T17:56:21.777Z,76.86
2018-09-05T17:58:50.258Z,76.19
2018-09-05T18:01:20.630Z,77.58
2018-09-05T18:03:49.102Z,77.79
2018-09-05T18:06:17.548Z,78.93
2018-09-05T18:08:46.043Z,78.65
2018-09-05T18:11:14.934Z,78.94
2018-09-05T18:13:43.499Z,79.92
2018-09-05T18:16:12.414Z,81.02
2018-09-05T18:18:40.931Z,82.26
2018-09-05T18:21:09.420Z,82.12
2018-09-05T18:23:37.892Z,83.18
2018-09-05T18:26:06.610Z,83.50
2018-09-05T18:28:35.080Z,82.80
2018-09-05T18:31:03.679Z,82.95
2018-09-05T18:33:32.199Z,82.90
2018-09-05T18:36:00.624Z,81.00
2018-09-05T18:38:29.135Z,82.73
2018-09-05T18:40:57.698Z,83.38
2018-09-05T18:43:26.151Z,83.62
2018-09-05T18:45:54.990Z,83.40
2018-09-05T18:48:23.409Z,83.78
2018-09-05T18:50:51.861Z,83.90
2018-09-05T18:53:20.433Z,84.48
2018-09-05T18:55:48.925Z,84.25
2018-09-05T18:58:17.479Z,85.12
2018-09-05T19:00:45.996Z,85.00
2018-09-05T19:03:14.395Z,85.55
2018-09-05T19:05:42.797Z,84.76
2018-09-05T19:08:11.286Z,83.46
2018-09-05T19:10:40.308Z,83.55
2018-09-05T19:13:10.168Z,83.31
2018-09-05T19:15:38.650Z,84.62
2018-09-05T19:18:07.678Z,84.94
2018-09-05T19:20:36.087Z,84.69
2018-09-05T19:23:05.542Z,85.18
2018-09-05T19:25:34.004Z,85.37
2018-09-05T19:28:02.537Z,85.65
2018-09-05T19:30:31.696Z,85.72
2018-09-05T19:33:00.149Z,85.61
2018-09-05T19:35:28.632Z,85.41
2018-09-05T19:37:57.068Z,85.95
2018-09-05T19:40:25.517Z,85.61
2018-09-05T19:42:53.972Z,86.36
2018-09-05T19:45:22.367Z,85.83
2018-09-05T19:47:51.410Z,85.32
2018-09-05T19:50:19.896Z,85.83
2018-09-05T19:52:48.378Z,85.80
2018-09-05T19:55:16.796Z,85.50
2018-09-05T19:57:45.216Z,85.18
2018-09-05T20:00:15.292Z,84.46
2018-09-05T20:02:43.775Z,83.81
2018-09-05T20:05:13.226Z,84.31
2018-09-05T20:07:41.669Z,83.91
2018-09-05T20:10:10.167Z,84.33
2018-09-05T20:12:38.617Z,83.88
2018-09-05T20:15:07.067Z,84.48
2018-09-05T20:17:36.558Z,85.25
2018-09-05T20:20:05.276Z,83.72
2018-09-05T20:22:34.271Z,83.08
2018-09-05T20:25:03.408Z,84.20
2018-09-05T20:27:31.958Z,84.99
2018-09-05T20:30:00.917Z,85.01
2018-09-05T20:32:31.030Z,84.82
2018-09-05T20:34:59.524Z,85.08
2018-09-05T20:37:27.947Z,85.09
2018-09-05T20:39:56.441Z,85.46
2018-09-05T20:42:24.868Z,85.38
2018-09-05T20:44:53.490Z,85.96
2018-09-05T20:47:21.942Z,85.86
2018-09-05T20:49:50.352Z,85.97
2018-09-05T20:52:18.890Z,84.85
2018-09-05T20:54:47.240Z,84.99
2018-09-05T20:57:16.336Z,85.23
2018-09-05T20:59:44.746Z,86.26
2018-09-05T21:02:13.163Z,86.01
2018-09-05T21:04:41.656Z,85.38
2018-09-05T21:07:11.114Z,85.36
2018-09-05T21:09:39.964Z,86.12
2018-09-05T21:12:08.433Z,86.50
2018-09-05T21:14:36.914Z,86.58
2018-09-05T21:17:05.559Z,85.39
2018-09-05T21:19:35.068Z,84.23
2018-09-05T21:22:03.520Z,84.44
2018-09-05T21:24:31.956Z,84.63
2018-09-05T21:27:00.498Z,84.70
2018-09-05T21:29:28.989Z,84.76
2018-09-05T21:31:57.463Z,84.95
2018-09-05T21:34:26.660Z,85.29
2018-09-05T21:36:55.019Z,85.48
2018-09-05T21:39:23.480Z,86.08
2018-09-05T21:41:52.253Z,86.39
2018-09-05T21:44:20.713Z,86.13
2018-09-05T21:46:49.131Z,85.67
2018-09-05T21:49:17.993Z,86.81
2018-09-05T21:51:46.408Z,86.55
2018-09-05T21:54:14.820Z,85.81
2018-09-05T21:56:43.291Z,85.96
2018-09-05T21:59:11.761Z,85.67
2018-09-05T22:01:40.160Z,84.98
2018-09-05T22:04:08.556Z,85.94
2018-09-05T22:06:36.970Z,85.76
2018-09-05T22:09:08.383Z,84.91
2018-09-05T22:11:37.908Z,85.38
2018-09-05T22:14:06.378Z,86.87
2018-09-05T22:16:34.909Z,86.49
2018-09-05T22:19:04.351Z,85.74
2018-09-05T22:21:32.777Z,86.11
2018-09-05T22:24:01.188Z,85.16
2018-09-05T22:26:29.654Z,84.85
2018-09-05T22:28:58.508Z,84.86
2018-09-05T22:31:26.991Z,85.31
2018-09-05T22:33:55.457Z,84.62
2018-09-05T22:36:23.855Z,84.35
2018-09-05T22:38:52.290Z,85.19
2018-09-05T22:41:20.754Z,84.22
2018-09-05T22:44:00.329Z,83.53
2018-09-05T22:46:40.069Z,84.00
2018-09-05T22:49:58.921Z,83.24
2018-09-05T22:53:14.477Z,83.26
2018-09-05T22:58:06.739Z,82.94
2018-09-05T23:00:43.349Z,83.66
2018-09-05T23:03:33.845Z,83.75
2018-09-05T23:08:22.768Z,83.43
2018-09-05T23:11:02.522Z,82.39
2018-09-05T23:14:43.429Z,82.56
2018-09-05T23:17:23.141Z,81.47
2018-09-05T23:20:03.589Z,81.75
2018-09-05T23:22:43.254Z,81.09
2018-09-05T23:25:11.781Z,80.24
2018-09-05T23:27:40.225Z,80.69
2018-09-05T23:30:08.767Z,80.34
2018-09-05T23:32:37.176Z,79.70
2018-09-05T23:35:05.648Z,79.45
2018-09-05T23:37:34.218Z,79.72
2018-09-05T23:40:02.602Z,79.18
2018-09-05T23:42:31.064Z,78.60
2018-09-05T23:44:59.544Z,78.45
2018-09-05T23:47:27.954Z,78.58
2018-09-05T23:49:56.399Z,78.71
2018-09-05T23:52:24.820Z,79.52
2018-09-05T23:54:53.261Z,79.12
2018-09-05T23:57:21.701Z,78.74
2018-09-05T23:59:50.119Z,78.99
